Augusta Township, Michigan
Current Conditions -  °F | °C
As of 2:53 AM on Tuesday 27 Jan 2015 (Local Time) from KARB Reporting Station
Clear Clear  
Wind Chill:   Ceiling: Unl
Heat Index:   Visibility: 10mi
Dew Point:   Wind: 0mph
Humidity: 84%   Direction: NA
Pressure: 29.97"   Gusts: NA
Location:  42.0828°N, 83.683°W
Report Text: KARB 270753Z AUTO 00000KT 10SM CLR M14/M16 A2997 RMK AO2 SLP165 I1000 T11391161
Loading
Personal Weather Stations






























Interactive Weather Map New forecast layout! Learn more

10-Day Weather Forecast

Advertisements
Track Severe Weather on mobile